sensor_id;sensor_type;location;lat;lon;timestamp;P1;P2;P0
49454;PMS5003;49011;64.658;21.218;2022-09-24T00:01:58;6;6;
49454;PMS5003;49011;64.658;21.218;2022-09-24T00:04:25;7;6;
49454;PMS5003;49011;64.658;21.218;2022-09-24T00:06:53;5;5;
49454;PMS5003;49011;64.658;21.218;2022-09-24T00:09:21;7;6;
49454;PMS5003;49011;64.658;21.218;2022-09-24T00:11:49;8;8;
49454;PMS5003;49011;64.658;21.218;2022-09-24T00:14:18;7;7;
49454;PMS5003;49011;64.658;21.218;2022-09-24T00:16:45;8;7;
49454;PMS5003;49011;64.658;21.218;2022-09-24T00:19:13;7;7;
49454;PMS5003;49011;64.658;21.218;2022-09-24T00:21:41;6;6;
49454;PMS5003;49011;64.658;21.218;2022-09-24T00:24:12;7;7;
49454;PMS5003;49011;64.658;21.218;2022-09-24T00:26:42;7;6;
49454;PMS5003;49011;64.658;21.218;2022-09-24T00:29:10;9;8;
49454;PMS5003;49011;64.658;21.218;2022-09-24T00:31:40;7;6;
49454;PMS5003;49011;64.658;21.218;2022-09-24T00:34:08;7;6;
49454;PMS5003;49011;64.658;21.218;2022-09-24T00:36:36;9;9;
49454;PMS5003;49011;64.658;21.218;2022-09-24T00:39:04;9;9;
49454;PMS5003;49011;64.658;21.218;2022-09-24T00:41:33;6;6;
49454;PMS5003;49011;64.658;21.218;2022-09-24T00:44:33;7;6;
49454;PMS5003;49011;64.658;21.218;2022-09-24T00:47:14;10;8;
49454;PMS5003;49011;64.658;21.218;2022-09-24T00:49:51;8;8;
49454;PMS5003;49011;64.658;21.218;2022-09-24T00:52:24;7;6;
49454;PMS5003;49011;64.658;21.218;2022-09-24T00:54:52;7;7;
49454;PMS5003;49011;64.658;21.218;2022-09-24T00:57:20;7;6;
49454;PMS5003;49011;64.658;21.218;2022-09-24T00:59:49;7;7;
49454;PMS5003;49011;64.658;21.218;2022-09-24T01:02:17;6;6;
49454;PMS5003;49011;64.658;21.218;2022-09-24T01:04:44;8;8;
49454;PMS5003;49011;64.658;21.218;2022-09-24T01:07:12;7;7;
49454;PMS5003;49011;64.658;21.218;2022-09-24T01:09:40;8;8;
49454;PMS5003;49011;64.658;21.218;2022-09-24T01:12:09;7;6;
49454;PMS5003;49011;64.658;21.218;2022-09-24T01:14:49;8;8;
49454;PMS5003;49011;64.658;21.218;2022-09-24T01:17:28;7;6;
49454;PMS5003;49011;64.658;21.218;2022-09-24T01:20:22;8;8;
49454;PMS5003;49011;64.658;21.218;2022-09-24T01:23:11;6;6;
49454;PMS5003;49011;64.658;21.218;2022-09-24T01:25:53;7;6;
49454;PMS5003;49011;64.658;21.218;2022-09-24T01:28:36;7;7;
49454;PMS5003;49011;64.658;21.218;2022-09-24T01:31:15;6;6;
49454;PMS5003;49011;64.658;21.218;2022-09-24T01:33:45;7;6;
49454;PMS5003;49011;64.658;21.218;2022-09-24T01:36:18;8;8;
49454;PMS5003;49011;64.658;21.218;2022-09-24T01:38:48;7;7;
49454;PMS5003;49011;64.658;21.218;2022-09-24T01:41:18;6;6;
49454;PMS5003;49011;64.658;21.218;2022-09-24T01:43:47;8;7;
49454;PMS5003;49011;64.658;21.218;2022-09-24T01:46:15;7;7;
49454;PMS5003;49011;64.658;21.218;2022-09-24T01:48:45;7;7;
49454;PMS5003;49011;64.658;21.218;2022-09-24T01:51:15;6;6;
49454;PMS5003;49011;64.658;21.218;2022-09-24T01:53:48;9;8;
49454;PMS5003;49011;64.658;21.218;2022-09-24T01:56:21;7;7;
49454;PMS5003;49011;64.658;21.218;2022-09-24T01:58:54;7;7;
49454;PMS5003;49011;64.658;21.218;2022-09-24T02:01:28;8;8;
49454;PMS5003;49011;64.658;21.218;2022-09-24T02:04:03;8;7;
49454;PMS5003;49011;64.658;21.218;2022-09-24T02:06:36;9;9;
49454;PMS5003;49011;64.658;21.218;2022-09-24T02:09:27;10;9;
49454;PMS5003;49011;64.658;21.218;2022-09-24T02:11:57;8;8;
49454;PMS5003;49011;64.658;21.218;2022-09-24T02:14:28;8;8;
49454;PMS5003;49011;64.658;21.218;2022-09-24T02:17:02;9;9;
49454;PMS5003;49011;64.658;21.218;2022-09-24T02:19:33;7;6;
49454;PMS5003;49011;64.658;21.218;2022-09-24T02:22:03;7;6;
49454;PMS5003;49011;64.658;21.218;2022-09-24T02:24:34;9;8;
49454;PMS5003;49011;64.658;21.218;2022-09-24T02:27:09;10;9;
49454;PMS5003;49011;64.658;21.218;2022-09-24T02:29:37;8;8;
49454;PMS5003;49011;64.658;21.218;2022-09-24T02:32:05;9;9;
49454;PMS5003;49011;64.658;21.218;2022-09-24T02:34:36;8;8;
49454;PMS5003;49011;64.658;21.218;2022-09-24T02:37:08;8;8;
49454;PMS5003;49011;64.658;21.218;2022-09-24T02:39:38;8;8;
49454;PMS5003;49011;64.658;21.218;2022-09-24T02:42:05;10;10;
49454;PMS5003;49011;64.658;21.218;2022-09-24T02:44:35;7;7;
49454;PMS5003;49011;64.658;21.218;2022-09-24T02:47:04;11;10;
49454;PMS5003;49011;64.658;21.218;2022-09-24T02:49:32;9;8;
49454;PMS5003;49011;64.658;21.218;2022-09-24T02:52:00;8;8;
49454;PMS5003;49011;64.658;21.218;2022-09-24T02:54:28;11;9;
49454;PMS5003;49011;64.658;21.218;2022-09-24T02:56:56;9;9;
49454;PMS5003;49011;64.658;21.218;2022-09-24T02:59:23;8;8;
49454;PMS5003;49011;64.658;21.218;2022-09-24T03:01:50;8;8;
49454;PMS5003;49011;64.658;21.218;2022-09-24T03:04:18;7;7;
49454;PMS5003;49011;64.658;21.218;2022-09-24T03:06:45;8;7;
49454;PMS5003;49011;64.658;21.218;2022-09-24T03:09:12;9;9;
49454;PMS5003;49011;64.658;21.218;2022-09-24T03:11:40;7;6;
49454;PMS5003;49011;64.658;21.218;2022-09-24T03:14:07;5;5;
49454;PMS5003;49011;64.658;21.218;2022-09-24T03:16:35;8;7;
49454;PMS5003;49011;64.658;21.218;2022-09-24T03:19:02;5;5;
49454;PMS5003;49011;64.658;21.218;2022-09-24T03:21:30;8;8;
49454;PMS5003;49011;64.658;21.218;2022-09-24T03:23:57;7;7;
49454;PMS5003;49011;64.658;21.218;2022-09-24T03:26:24;6;6;
49454;PMS5003;49011;64.658;21.218;2022-09-24T03:28:52;4;4;
49454;PMS5003;49011;64.658;21.218;2022-09-24T03:31:19;5;5;
49454;PMS5003;49011;64.658;21.218;2022-09-24T03:33:47;6;6;
49454;PMS5003;49011;64.658;21.218;2022-09-24T03:36:16;9;7;
49454;PMS5003;49011;64.658;21.218;2022-09-24T03:38:46;6;6;
49454;PMS5003;49011;64.658;21.218;2022-09-24T03:41:15;6;5;
49454;PMS5003;49011;64.658;21.218;2022-09-24T03:43:43;7;6;
49454;PMS5003;49011;64.658;21.218;2022-09-24T03:46:11;6;6;
49454;PMS5003;49011;64.658;21.218;2022-09-24T03:48:39;6;6;
49454;PMS5003;49011;64.658;21.218;2022-09-24T03:51:08;6;5;
49454;PMS5003;49011;64.658;21.218;2022-09-24T03:53:40;6;5;
49454;PMS5003;49011;64.658;21.218;2022-09-24T03:56:08;8;7;
49454;PMS5003;49011;64.658;21.218;2022-09-24T03:58:36;9;8;
49454;PMS5003;49011;64.658;21.218;2022-09-24T04:01:04;7;7;
49454;PMS5003;49011;64.658;21.218;2022-09-24T04:03:32;6;6;
49454;PMS5003;49011;64.658;21.218;2022-09-24T04:06:00;8;7;
49454;PMS5003;49011;64.658;21.218;2022-09-24T04:08:27;6;6;
49454;PMS5003;49011;64.658;21.218;2022-09-24T04:10:54;7;7;
49454;PMS5003;49011;64.658;21.218;2022-09-24T04:13:22;8;7;
49454;PMS5003;49011;64.658;21.218;2022-09-24T04:15:49;5;5;
49454;PMS5003;49011;64.658;21.218;2022-09-24T04:18:17;7;7;
49454;PMS5003;49011;64.658;21.218;2022-09-24T04:20:45;7;6;
49454;PMS5003;49011;64.658;21.218;2022-09-24T04:23:12;8;8;
49454;PMS5003;49011;64.658;21.218;2022-09-24T04:25:40;10;8;
49454;PMS5003;49011;64.658;21.218;2022-09-24T04:28:08;7;7;
49454;PMS5003;49011;64.658;21.218;2022-09-24T04:30:36;7;7;
49454;PMS5003;49011;64.658;21.218;2022-09-24T04:33:04;8;8;
49454;PMS5003;49011;64.658;21.218;2022-09-24T04:35:33;7;7;
49454;PMS5003;49011;64.658;21.218;2022-09-24T04:38:02;10;9;
49454;PMS5003;49011;64.658;21.218;2022-09-24T04:40:29;9;8;
49454;PMS5003;49011;64.658;21.218;2022-09-24T04:42:57;8;8;
49454;PMS5003;49011;64.658;21.218;2022-09-24T04:45:25;8;8;
49454;PMS5003;49011;64.658;21.218;2022-09-24T04:47:52;8;8;
49454;PMS5003;49011;64.658;21.218;2022-09-24T04:50:20;8;7;
49454;PMS5003;49011;64.658;21.218;2022-09-24T04:52:48;8;8;
49454;PMS5003;49011;64.658;21.218;2022-09-24T04:55:15;9;8;
49454;PMS5003;49011;64.658;21.218;2022-09-24T04:57:43;8;8;
49454;PMS5003;49011;64.658;21.218;2022-09-24T05:00:12;8;8;
49454;PMS5003;49011;64.658;21.218;2022-09-24T05:02:42;7;7;
49454;PMS5003;49011;64.658;21.218;2022-09-24T05:05:10;7;7;
49454;PMS5003;49011;64.658;21.218;2022-09-24T05:07:39;7;7;
49454;PMS5003;49011;64.658;21.218;2022-09-24T05:10:08;7;7;
49454;PMS5003;49011;64.658;21.218;2022-09-24T05:12:35;6;6;
49454;PMS5003;49011;64.658;21.218;2022-09-24T05:15:02;8;8;
49454;PMS5003;49011;64.658;21.218;2022-09-24T05:17:31;7;7;
49454;PMS5003;49011;64.658;21.218;2022-09-24T05:19:59;7;7;
49454;PMS5003;49011;64.658;21.218;2022-09-24T05:22:27;8;7;
49454;PMS5003;49011;64.658;21.218;2022-09-24T05:24:54;9;9;
49454;PMS5003;49011;64.658;21.218;2022-09-24T05:27:22;8;8;
49454;PMS5003;49011;64.658;21.218;2022-09-24T05:29:49;9;8;
49454;PMS5003;49011;64.658;21.218;2022-09-24T05:32:17;10;10;
49454;PMS5003;49011;64.658;21.218;2022-09-24T05:34:46;7;6;
49454;PMS5003;49011;64.658;21.218;2022-09-24T05:37:14;10;9;
49454;PMS5003;49011;64.658;21.218;2022-09-24T05:39:42;7;7;
49454;PMS5003;49011;64.658;21.218;2022-09-24T05:42:09;8;8;
49454;PMS5003;49011;64.658;21.218;2022-09-24T05:44:37;7;7;
49454;PMS5003;49011;64.658;21.218;2022-09-24T05:47:05;8;7;
49454;PMS5003;49011;64.658;21.218;2022-09-24T05:49:32;8;8;
49454;PMS5003;49011;64.658;21.218;2022-09-24T05:52:01;8;7;
49454;PMS5003;49011;64.658;21.218;2022-09-24T05:54:29;9;9;
49454;PMS5003;49011;64.658;21.218;2022-09-24T05:56:57;8;7;
49454;PMS5003;49011;64.658;21.218;2022-09-24T05:59:24;8;8;
49454;PMS5003;49011;64.658;21.218;2022-09-24T06:01:52;6;6;
49454;PMS5003;49011;64.658;21.218;2022-09-24T06:04:20;5;5;
49454;PMS5003;49011;64.658;21.218;2022-09-24T06:06:47;8;8;
49454;PMS5003;49011;64.658;21.218;2022-09-24T06:09:14;9;8;
49454;PMS5003;49011;64.658;21.218;2022-09-24T06:11:42;6;6;
49454;PMS5003;49011;64.658;21.218;2022-09-24T06:14:10;8;8;
49454;PMS5003;49011;64.658;21.218;2022-09-24T06:16:37;7;7;
49454;PMS5003;49011;64.658;21.218;2022-09-24T06:19:05;7;7;
49454;PMS5003;49011;64.658;21.218;2022-09-24T06:21:33;9;8;
49454;PMS5003;49011;64.658;21.218;2022-09-24T06:24:00;8;7;
49454;PMS5003;49011;64.658;21.218;2022-09-24T06:26:28;6;6;
49454;PMS5003;49011;64.658;21.218;2022-09-24T06:28:56;8;8;
49454;PMS5003;49011;64.658;21.218;2022-09-24T06:31:23;7;7;
49454;PMS5003;49011;64.658;21.218;2022-09-24T06:33:51;6;5;
49454;PMS5003;49011;64.658;21.218;2022-09-24T06:36:19;8;8;
49454;PMS5003;49011;64.658;21.218;2022-09-24T06:38:49;8;8;
49454;PMS5003;49011;64.658;21.218;2022-09-24T06:41:17;10;10;
49454;PMS5003;49011;64.658;21.218;2022-09-24T06:43:45;9;9;
49454;PMS5003;49011;64.658;21.218;2022-09-24T06:46:12;10;9;
49454;PMS5003;49011;64.658;21.218;2022-09-24T06:48:40;11;11;
49454;PMS5003;49011;64.658;21.218;2022-09-24T06:51:08;9;8;
49454;PMS5003;49011;64.658;21.218;2022-09-24T06:53:36;9;9;
49454;PMS5003;49011;64.658;21.218;2022-09-24T06:56:04;10;10;
49454;PMS5003;49011;64.658;21.218;2022-09-24T06:58:32;8;7;
49454;PMS5003;49011;64.658;21.218;2022-09-24T07:01:00;8;7;
49454;PMS5003;49011;64.658;21.218;2022-09-24T07:03:29;8;7;
49454;PMS5003;49011;64.658;21.218;2022-09-24T07:05:58;8;8;
49454;PMS5003;49011;64.658;21.218;2022-09-24T07:08:27;8;8;
49454;PMS5003;49011;64.658;21.218;2022-09-24T07:10:55;6;6;
49454;PMS5003;49011;64.658;21.218;2022-09-24T07:13:22;10;9;
49454;PMS5003;49011;64.658;21.218;2022-09-24T07:15:50;10;9;
49454;PMS5003;49011;64.658;21.218;2022-09-24T07:18:18;7;7;
49454;PMS5003;49011;64.658;21.218;2022-09-24T07:20:50;9;9;
49454;PMS5003;49011;64.658;21.218;2022-09-24T07:23:18;10;9;
49454;PMS5003;49011;64.658;21.218;2022-09-24T07:25:47;7;7;
49454;PMS5003;49011;64.658;21.218;2022-09-24T07:28:15;8;7;
49454;PMS5003;49011;64.658;21.218;2022-09-24T07:30:43;8;8;
49454;PMS5003;49011;64.658;21.218;2022-09-24T07:33:10;9;8;
49454;PMS5003;49011;64.658;21.218;2022-09-24T07:35:38;8;8;
49454;PMS5003;49011;64.658;21.218;2022-09-24T07:38:07;10;10;
49454;PMS5003;49011;64.658;21.218;2022-09-24T07:40:37;9;9;
49454;PMS5003;49011;64.658;21.218;2022-09-24T07:43:04;11;11;
49454;PMS5003;49011;64.658;21.218;2022-09-24T07:45:36;9;9;
49454;PMS5003;49011;64.658;21.218;2022-09-24T07:48:04;8;8;
49454;PMS5003;49011;64.658;21.218;2022-09-24T07:50:33;9;8;
49454;PMS5003;49011;64.658;21.218;2022-09-24T07:53:04;10;10;
49454;PMS5003;49011;64.658;21.218;2022-09-24T07:55:32;10;10;
49454;PMS5003;49011;64.658;21.218;2022-09-24T07:57:59;9;9;
49454;PMS5003;49011;64.658;21.218;2022-09-24T08:00:26;12;11;
49454;PMS5003;49011;64.658;21.218;2022-09-24T08:02:54;10;9;
49454;PMS5003;49011;64.658;21.218;2022-09-24T08:05:21;13;11;
49454;PMS5003;49011;64.658;21.218;2022-09-24T08:07:50;11;11;
49454;PMS5003;49011;64.658;21.218;2022-09-24T08:10:19;16;15;
49454;PMS5003;49011;64.658;21.218;2022-09-24T08:12:46;12;12;
49454;PMS5003;49011;64.658;21.218;2022-09-24T08:15:14;11;10;
49454;PMS5003;49011;64.658;21.218;2022-09-24T08:17:41;10;10;
49454;PMS5003;49011;64.658;21.218;2022-09-24T08:20:09;11;10;
49454;PMS5003;49011;64.658;21.218;2022-09-24T08:22:37;9;9;
49454;PMS5003;49011;64.658;21.218;2022-09-24T08:25:04;10;10;
49454;PMS5003;49011;64.658;21.218;2022-09-24T08:27:32;9;9;
49454;PMS5003;49011;64.658;21.218;2022-09-24T08:29:59;11;10;
49454;PMS5003;49011;64.658;21.218;2022-09-24T08:32:27;9;9;
49454;PMS5003;49011;64.658;21.218;2022-09-24T08:34:54;9;9;
49454;PMS5003;49011;64.658;21.218;2022-09-24T08:37:21;11;11;
49454;PMS5003;49011;64.658;21.218;2022-09-24T08:39:49;11;10;
49454;PMS5003;49011;64.658;21.218;2022-09-24T08:42:22;8;8;
49454;PMS5003;49011;64.658;21.218;2022-09-24T08:44:58;12;11;
49454;PMS5003;49011;64.658;21.218;2022-09-24T08:47:31;8;7;
49454;PMS5003;49011;64.658;21.218;2022-09-24T08:50:06;8;8;
49454;PMS5003;49011;64.658;21.218;2022-09-24T08:52:42;11;10;
49454;PMS5003;49011;64.658;21.218;2022-09-24T08:55:17;10;10;
49454;PMS5003;49011;64.658;21.218;2022-09-24T08:57:53;10;10;
49454;PMS5003;49011;64.658;21.218;2022-09-24T09:00:27;6;6;
49454;PMS5003;49011;64.658;21.218;2022-09-24T09:03:00;7;7;
49454;PMS5003;49011;64.658;21.218;2022-09-24T09:05:43;10;10;
49454;PMS5003;49011;64.658;21.218;2022-09-24T09:08:18;11;10;
49454;PMS5003;49011;64.658;21.218;2022-09-24T09:10:55;9;9;
49454;PMS5003;49011;64.658;21.218;2022-09-24T09:13:27;12;10;
49454;PMS5003;49011;64.658;21.218;2022-09-24T09:16:03;11;11;
49454;PMS5003;49011;64.658;21.218;2022-09-24T09:18:34;11;10;
49454;PMS5003;49011;64.658;21.218;2022-09-24T09:21:09;12;11;
49454;PMS5003;49011;64.658;21.218;2022-09-24T09:23:44;11;11;
49454;PMS5003;49011;64.658;21.218;2022-09-24T09:26:14;14;13;
49454;PMS5003;49011;64.658;21.218;2022-09-24T09:28:42;18;17;
49454;PMS5003;49011;64.658;21.218;2022-09-24T09:31:14;22;20;
49454;PMS5003;49011;64.658;21.218;2022-09-24T09:33:57;20;19;
49454;PMS5003;49011;64.658;21.218;2022-09-24T09:36:41;16;16;
49454;PMS5003;49011;64.658;21.218;2022-09-24T09:39:21;18;18;
49454;PMS5003;49011;64.658;21.218;2022-09-24T09:42:01;15;15;
49454;PMS5003;49011;64.658;21.218;2022-09-24T09:44:36;15;14;
49454;PMS5003;49011;64.658;21.218;2022-09-24T09:47:11;13;13;
